sensor_id;sensor_type;location;lat;lon;timestamp;temperature;humidity
22698;DHT22;11516;51.612;7.510;2023-07-20T00:00:48;17.70;99.90
22698;DHT22;11516;51.612;7.510;2023-07-20T00:03:19;17.80;99.90
22698;DHT22;11516;51.612;7.510;2023-07-20T00:05:51;17.80;99.90
22698;DHT22;11516;51.612;7.510;2023-07-20T00:08:17;17.80;99.90
22698;DHT22;11516;51.612;7.510;2023-07-20T00:10:43;17.80;99.90
22698;DHT22;11516;51.612;7.510;2023-07-20T00:13:10;17.70;99.90
22698;DHT22;11516;51.612;7.510;2023-07-20T00:15:36;17.60;99.90
22698;DHT22;11516;51.612;7.510;2023-07-20T00:18:06;17.70;99.90
22698;DHT22;11516;51.612;7.510;2023-07-20T00:20:31;17.70;99.90
22698;DHT22;11516;51.612;7.510;2023-07-20T00:22:57;17.70;99.90
22698;DHT22;11516;51.612;7.510;2023-07-20T00:25:24;17.60;99.90
22698;DHT22;11516;51.612;7.510;2023-07-20T00:27:49;17.60;99.90
22698;DHT22;11516;51.612;7.510;2023-07-20T00:30:15;17.70;99.90
22698;DHT22;11516;51.612;7.510;2023-07-20T00:32:42;17.70;99.90
22698;DHT22;11516;51.612;7.510;2023-07-20T00:35:08;17.70;99.90
22698;DHT22;11516;51.612;7.510;2023-07-20T00:37:34;17.70;99.90
22698;DHT22;11516;51.612;7.510;2023-07-20T00:40:00;17.70;99.90
22698;DHT22;11516;51.612;7.510;2023-07-20T00:42:25;17.70;99.90
22698;DHT22;11516;51.612;7.510;2023-07-20T00:44:51;17.70;99.90
22698;DHT22;11516;51.612;7.510;2023-07-20T00:47:16;17.70;99.90
22698;DHT22;11516;51.612;7.510;2023-07-20T00:49:42;17.60;99.90
22698;DHT22;11516;51.612;7.510;2023-07-20T00:52:10;17.70;99.90
22698;DHT22;11516;51.612;7.510;2023-07-20T00:54:37;17.70;99.90
22698;DHT22;11516;51.612;7.510;2023-07-20T00:57:03;17.70;99.90
22698;DHT22;11516;51.612;7.510;2023-07-20T00:59:29;17.70;99.90
22698;DHT22;11516;51.612;7.510;2023-07-20T01:01:55;17.60;99.90
22698;DHT22;11516;51.612;7.510;2023-07-20T01:04:21;17.50;99.90
22698;DHT22;11516;51.612;7.510;2023-07-20T01:09:43;17.50;99.90
22698;DHT22;11516;51.612;7.510;2023-07-20T01:12:17;17.40;99.90
22698;DHT22;11516;51.612;7.510;2023-07-20T01:14:44;17.50;99.90
22698;DHT22;11516;51.612;7.510;2023-07-20T01:17:10;17.50;99.90
22698;DHT22;11516;51.612;7.510;2023-07-20T01:19:35;17.50;99.90
22698;DHT22;11516;51.612;7.510;2023-07-20T01:24:43;17.40;99.90
22698;DHT22;11516;51.612;7.510;2023-07-20T01:29:55;17.50;99.90
22698;DHT22;11516;51.612;7.510;2023-07-20T01:32:24;17.50;99.90
22698;DHT22;11516;51.612;7.510;2023-07-20T01:34:52;17.50;99.90
22698;DHT22;11516;51.612;7.510;2023-07-20T01:37:20;17.60;99.90
22698;DHT22;11516;51.612;7.510;2023-07-20T01:39:49;17.60;99.90
22698;DHT22;11516;51.612;7.510;2023-07-20T01:42:15;17.70;99.90
22698;DHT22;11516;51.612;7.510;2023-07-20T01:44:40;17.70;99.90
22698;DHT22;11516;51.612;7.510;2023-07-20T01:47:06;17.60;99.90
22698;DHT22;11516;51.612;7.510;2023-07-20T01:49:31;17.60;99.90
22698;DHT22;11516;51.612;7.510;2023-07-20T01:51:57;17.60;99.90
22698;DHT22;11516;51.612;7.510;2023-07-20T01:54:22;17.60;99.90
22698;DHT22;11516;51.612;7.510;2023-07-20T01:56:48;17.50;99.90
22698;DHT22;11516;51.612;7.510;2023-07-20T01:59:13;17.60;99.90
22698;DHT22;11516;51.612;7.510;2023-07-20T02:01:39;17.60;99.90
22698;DHT22;11516;51.612;7.510;2023-07-20T02:04:04;17.60;99.90
22698;DHT22;11516;51.612;7.510;2023-07-20T02:06:30;17.60;99.90
22698;DHT22;11516;51.612;7.510;2023-07-20T02:08:55;17.60;99.90
22698;DHT22;11516;51.612;7.510;2023-07-20T02:11:21;17.10;99.90
22698;DHT22;11516;51.612;7.510;2023-07-20T02:13:46;17.50;99.90
22698;DHT22;11516;51.612;7.510;2023-07-20T02:16:12;17.50;99.90
22698;DHT22;11516;51.612;7.510;2023-07-20T02:18:37;17.50;99.90
22698;DHT22;11516;51.612;7.510;2023-07-20T02:21:03;17.50;99.90
22698;DHT22;11516;51.612;7.510;2023-07-20T02:23:28;17.50;99.90
22698;DHT22;11516;51.612;7.510;2023-07-20T02:25:54;17.50;99.90
22698;DHT22;11516;51.612;7.510;2023-07-20T02:28:20;17.50;99.90
22698;DHT22;11516;51.612;7.510;2023-07-20T02:30:45;17.60;99.90
22698;DHT22;11516;51.612;7.510;2023-07-20T02:33:11;17.50;99.90
22698;DHT22;11516;51.612;7.510;2023-07-20T02:35:37;17.50;99.90
22698;DHT22;11516;51.612;7.510;2023-07-20T02:38:02;17.40;99.90
22698;DHT22;11516;51.612;7.510;2023-07-20T02:40:28;17.20;99.90
22698;DHT22;11516;51.612;7.510;2023-07-20T02:42:54;17.10;99.90
22698;DHT22;11516;51.612;7.510;2023-07-20T02:45:19;17.10;99.90
22698;DHT22;11516;51.612;7.510;2023-07-20T02:47:45;17.10;99.90
22698;DHT22;11516;51.612;7.510;2023-07-20T02:50:11;16.90;99.90
22698;DHT22;11516;51.612;7.510;2023-07-20T02:52:39;16.90;99.90
22698;DHT22;11516;51.612;7.510;2023-07-20T02:55:04;16.80;99.90
22698;DHT22;11516;51.612;7.510;2023-07-20T02:57:30;16.80;99.90
22698;DHT22;11516;51.612;7.510;2023-07-20T02:59:55;16.70;99.90
22698;DHT22;11516;51.612;7.510;2023-07-20T03:02:21;16.60;99.90
22698;DHT22;11516;51.612;7.510;2023-07-20T03:04:46;16.60;99.90
22698;DHT22;11516;51.612;7.510;2023-07-20T03:07:12;16.70;99.90
22698;DHT22;11516;51.612;7.510;2023-07-20T03:09:38;16.70;99.90
22698;DHT22;11516;51.612;7.510;2023-07-20T03:12:04;16.70;99.90
22698;DHT22;11516;51.612;7.510;2023-07-20T03:14:30;16.60;99.90
22698;DHT22;11516;51.612;7.510;2023-07-20T03:16:55;16.60;99.90
22698;DHT22;11516;51.612;7.510;2023-07-20T03:19:21;14.60;99.90
22698;DHT22;11516;51.612;7.510;2023-07-20T03:21:47;16.60;99.90
22698;DHT22;11516;51.612;7.510;2023-07-20T03:24:12;16.70;99.90
22698;DHT22;11516;51.612;7.510;2023-07-20T03:26:38;16.70;99.90
22698;DHT22;11516;51.612;7.510;2023-07-20T03:29:04;16.60;99.90
22698;DHT22;11516;51.612;7.510;2023-07-20T03:31:30;16.40;99.90
22698;DHT22;11516;51.612;7.510;2023-07-20T03:33:55;16.40;99.90
22698;DHT22;11516;51.612;7.510;2023-07-20T03:36:21;16.40;99.90
22698;DHT22;11516;51.612;7.510;2023-07-20T03:38:47;16.30;99.90
22698;DHT22;11516;51.612;7.510;2023-07-20T03:41:13;16.30;99.90
22698;DHT22;11516;51.612;7.510;2023-07-20T03:43:40;16.30;99.90
22698;DHT22;11516;51.612;7.510;2023-07-20T03:46:05;16.20;99.90
22698;DHT22;11516;51.612;7.510;2023-07-20T03:48:33;15.70;99.90
22698;DHT22;11516;51.612;7.510;2023-07-20T03:50:58;16.10;99.90
22698;DHT22;11516;51.612;7.510;2023-07-20T03:53:25;16.10;99.90
22698;DHT22;11516;51.612;7.510;2023-07-20T03:55:52;16.00;99.90
22698;DHT22;11516;51.612;7.510;2023-07-20T03:58:19;16.00;99.90
22698;DHT22;11516;51.612;7.510;2023-07-20T04:00:45;16.00;99.90
22698;DHT22;11516;51.612;7.510;2023-07-20T04:03:12;15.90;99.90
22698;DHT22;11516;51.612;7.510;2023-07-20T04:05:37;15.90;99.90
22698;DHT22;11516;51.612;7.510;2023-07-20T04:08:03;15.90;99.90
22698;DHT22;11516;51.612;7.510;2023-07-20T04:10:29;15.90;99.90
22698;DHT22;11516;51.612;7.510;2023-07-20T04:12:55;16.00;99.90
22698;DHT22;11516;51.612;7.510;2023-07-20T04:15:20;16.00;99.90
22698;DHT22;11516;51.612;7.510;2023-07-20T04:17:46;16.00;99.90
22698;DHT22;11516;51.612;7.510;2023-07-20T04:20:12;15.90;99.90
22698;DHT22;11516;51.612;7.510;2023-07-20T04:22:37;15.90;99.90
22698;DHT22;11516;51.612;7.510;2023-07-20T04:25:04;15.90;99.90
22698;DHT22;11516;51.612;7.510;2023-07-20T04:27:29;15.90;99.90
22698;DHT22;11516;51.612;7.510;2023-07-20T04:29:55;15.80;99.90
22698;DHT22;11516;51.612;7.510;2023-07-20T04:32:21;15.80;99.90
22698;DHT22;11516;51.612;7.510;2023-07-20T04:34:46;15.80;99.90
22698;DHT22;11516;51.612;7.510;2023-07-20T04:37:12;15.90;99.90
22698;DHT22;11516;51.612;7.510;2023-07-20T04:39:37;15.90;99.90
22698;DHT22;11516;51.612;7.510;2023-07-20T04:42:03;15.80;99.90
22698;DHT22;11516;51.612;7.510;2023-07-20T04:44:28;15.80;99.90
22698;DHT22;11516;51.612;7.510;2023-07-20T04:46:54;15.70;99.90
22698;DHT22;11516;51.612;7.510;2023-07-20T04:49:19;15.80;99.90
22698;DHT22;11516;51.612;7.510;2023-07-20T04:51:45;15.70;99.90
22698;DHT22;11516;51.612;7.510;2023-07-20T04:54:11;15.60;99.90
22698;DHT22;11516;51.612;7.510;2023-07-20T04:56:36;15.60;99.90
22698;DHT22;11516;51.612;7.510;2023-07-20T04:59:02;15.70;99.90
22698;DHT22;11516;51.612;7.510;2023-07-20T05:01:27;15.70;99.90
22698;DHT22;11516;51.612;7.510;2023-07-20T05:03:53;15.70;99.90
22698;DHT22;11516;51.612;7.510;2023-07-20T05:06:19;15.80;99.90
22698;DHT22;11516;51.612;7.510;2023-07-20T05:08:44;15.90;99.90
22698;DHT22;11516;51.612;7.510;2023-07-20T05:11:11;16.00;99.90
22698;DHT22;11516;51.612;7.510;2023-07-20T05:13:37;15.90;99.90
22698;DHT22;11516;51.612;7.510;2023-07-20T05:16:02;15.80;99.90
22698;DHT22;11516;51.612;7.510;2023-07-20T05:18:28;15.70;99.90
22698;DHT22;11516;51.612;7.510;2023-07-20T05:20:54;15.70;99.90
22698;DHT22;11516;51.612;7.510;2023-07-20T05:23:21;15.60;99.90
22698;DHT22;11516;51.612;7.510;2023-07-20T05:25:47;15.60;99.90
22698;DHT22;11516;51.612;7.510;2023-07-20T05:28:13;15.50;99.90
22698;DHT22;11516;51.612;7.510;2023-07-20T05:30:39;15.60;99.90
22698;DHT22;11516;51.612;7.510;2023-07-20T05:33:05;15.70;99.90
22698;DHT22;11516;51.612;7.510;2023-07-20T05:35:30;15.70;99.90
22698;DHT22;11516;51.612;7.510;2023-07-20T05:37:56;15.60;99.90
22698;DHT22;11516;51.612;7.510;2023-07-20T05:40:21;15.70;99.90
22698;DHT22;11516;51.612;7.510;2023-07-20T05:42:48;15.80;99.90
22698;DHT22;11516;51.612;7.510;2023-07-20T05:45:17;15.90;99.90
22698;DHT22;11516;51.612;7.510;2023-07-20T05:47:43;15.80;99.90
22698;DHT22;11516;51.612;7.510;2023-07-20T05:50:09;15.90;99.90
22698;DHT22;11516;51.612;7.510;2023-07-20T05:52:35;15.70;99.90
22698;DHT22;11516;51.612;7.510;2023-07-20T05:55:00;15.70;99.90
22698;DHT22;11516;51.612;7.510;2023-07-20T05:57:26;15.70;99.90
22698;DHT22;11516;51.612;7.510;2023-07-20T05:59:51;15.90;99.90
22698;DHT22;11516;51.612;7.510;2023-07-20T06:02:17;16.10;99.90
22698;DHT22;11516;51.612;7.510;2023-07-20T06:04:42;16.20;99.90
22698;DHT22;11516;51.612;7.510;2023-07-20T06:07:08;16.30;99.90
22698;DHT22;11516;51.612;7.510;2023-07-20T06:09:34;16.40;99.90
22698;DHT22;11516;51.612;7.510;2023-07-20T06:12:00;16.40;99.90
22698;DHT22;11516;51.612;7.510;2023-07-20T06:14:25;16.10;99.90
22698;DHT22;11516;51.612;7.510;2023-07-20T06:16:51;16.10;99.90
22698;DHT22;11516;51.612;7.510;2023-07-20T06:19:16;16.10;99.90
22698;DHT22;11516;51.612;7.510;2023-07-20T06:21:42;15.90;99.90
22698;DHT22;11516;51.612;7.510;2023-07-20T06:24:07;15.90;99.90
22698;DHT22;11516;51.612;7.510;2023-07-20T06:26:33;15.90;99.90
22698;DHT22;11516;51.612;7.510;2023-07-20T06:29:07;15.90;99.90
22698;DHT22;11516;51.612;7.510;2023-07-20T06:31:33;15.80;99.90
22698;DHT22;11516;51.612;7.510;2023-07-20T06:33:59;15.90;99.90
22698;DHT22;11516;51.612;7.510;2023-07-20T06:36:25;16.10;99.90
22698;DHT22;11516;51.612;7.510;2023-07-20T06:38:52;16.10;99.90
22698;DHT22;11516;51.612;7.510;2023-07-20T06:41:18;16.10;99.90
22698;DHT22;11516;51.612;7.510;2023-07-20T06:43:44;16.20;99.90
22698;DHT22;11516;51.612;7.510;2023-07-20T06:46:09;16.20;99.90
22698;DHT22;11516;51.612;7.510;2023-07-20T06:48:35;16.10;99.90
22698;DHT22;11516;51.612;7.510;2023-07-20T06:51:00;16.10;99.90
22698;DHT22;11516;51.612;7.510;2023-07-20T06:53:26;16.10;99.90
22698;DHT22;11516;51.612;7.510;2023-07-20T06:55:51;16.00;99.90
22698;DHT22;11516;51.612;7.510;2023-07-20T06:58:17;16.00;99.90
22698;DHT22;11516;51.612;7.510;2023-07-20T07:00:43;16.00;99.90
22698;DHT22;11516;51.612;7.510;2023-07-20T07:03:10;16.00;99.90
22698;DHT22;11516;51.612;7.510;2023-07-20T07:05:38;16.00;99.90
22698;DHT22;11516;51.612;7.510;2023-07-20T07:08:05;15.80;99.90
22698;DHT22;11516;51.612;7.510;2023-07-20T07:10:30;15.70;99.90
22698;DHT22;11516;51.612;7.510;2023-07-20T07:12:56;15.80;99.90
22698;DHT22;11516;51.612;7.510;2023-07-20T07:15:21;15.70;99.90
22698;DHT22;11516;51.612;7.510;2023-07-20T07:17:47;15.70;99.90
22698;DHT22;11516;51.612;7.510;2023-07-20T07:20:13;15.60;99.90
22698;DHT22;11516;51.612;7.510;2023-07-20T07:22:38;15.80;99.90
22698;DHT22;11516;51.612;7.510;2023-07-20T07:25:04;15.90;99.90
22698;DHT22;11516;51.612;7.510;2023-07-20T07:27:30;16.10;99.90
22698;DHT22;11516;51.612;7.510;2023-07-20T07:29:55;16.00;99.90
22698;DHT22;11516;51.612;7.510;2023-07-20T07:32:21;15.90;99.90
22698;DHT22;11516;51.612;7.510;2023-07-20T07:34:47;15.70;99.90
22698;DHT22;11516;51.612;7.510;2023-07-20T07:37:13;15.60;99.90
22698;DHT22;11516;51.612;7.510;2023-07-20T07:39:39;15.80;99.90
22698;DHT22;11516;51.612;7.510;2023-07-20T07:42:05;16.10;99.90
22698;DHT22;11516;51.612;7.510;2023-07-20T07:44:31;16.30;99.90
22698;DHT22;11516;51.612;7.510;2023-07-20T07:46:56;16.50;99.90
22698;DHT22;11516;51.612;7.510;2023-07-20T07:49:22;16.60;99.90
22698;DHT22;11516;51.612;7.510;2023-07-20T07:51:47;16.80;99.90
22698;DHT22;11516;51.612;7.510;2023-07-20T07:54:14;16.90;99.90
22698;DHT22;11516;51.612;7.510;2023-07-20T07:56:39;16.90;99.90
22698;DHT22;11516;51.612;7.510;2023-07-20T07:59:06;16.80;99.90
22698;DHT22;11516;51.612;7.510;2023-07-20T08:01:32;16.80;99.90
22698;DHT22;11516;51.612;7.510;2023-07-20T08:03:57;16.90;99.90
22698;DHT22;11516;51.612;7.510;2023-07-20T08:06:23;17.00;99.90
22698;DHT22;11516;51.612;7.510;2023-07-20T08:08:49;17.10;99.90
22698;DHT22;11516;51.612;7.510;2023-07-20T08:11:15;17.30;99.90
22698;DHT22;11516;51.612;7.510;2023-07-20T08:13:40;17.50;99.90
22698;DHT22;11516;51.612;7.510;2023-07-20T08:16:06;17.60;99.90
22698;DHT22;11516;51.612;7.510;2023-07-20T08:18:32;17.90;99.90
22698;DHT22;11516;51.612;7.510;2023-07-20T08:20:58;18.10;99.90
22698;DHT22;11516;51.612;7.510;2023-07-20T08:23:23;18.40;99.90
22698;DHT22;11516;51.612;7.510;2023-07-20T08:25:49;18.40;99.90
22698;DHT22;11516;51.612;7.510;2023-07-20T08:28:15;18.40;99.90
22698;DHT22;11516;51.612;7.510;2023-07-20T08:30:46;18.40;99.90
22698;DHT22;11516;51.612;7.510;2023-07-20T08:33:14;18.50;99.90
22698;DHT22;11516;51.612;7.510;2023-07-20T08:35:40;18.60;99.90
22698;DHT22;11516;51.612;7.510;2023-07-20T08:38:06;18.50;99.90
22698;DHT22;11516;51.612;7.510;2023-07-20T08:40:33;18.30;99.90
22698;DHT22;11516;51.612;7.510;2023-07-20T08:43:00;18.40;99.90
22698;DHT22;11516;51.612;7.510;2023-07-20T08:45:27;18.30;99.90
22698;DHT22;11516;51.612;7.510;2023-07-20T08:47:58;18.40;99.90
22698;DHT22;11516;51.612;7.510;2023-07-20T08:50:28;18.50;99.90
22698;DHT22;11516;51.612;7.510;2023-07-20T08:52:57;18.70;99.90
22698;DHT22;11516;51.612;7.510;2023-07-20T08:55:27;18.80;99.90
22698;DHT22;11516;51.612;7.510;2023-07-20T08:57:54;19.00;99.90
22698;DHT22;11516;51.612;7.510;2023-07-20T09:00:21;19.10;99.90
22698;DHT22;11516;51.612;7.510;2023-07-20T09:02:52;19.30;99.90
22698;DHT22;11516;51.612;7.510;2023-07-20T09:05:19;19.30;99.90
22698;DHT22;11516;51.612;7.510;2023-07-20T09:07:45;19.00;99.90
22698;DHT22;11516;51.612;7.510;2023-07-20T09:10:11;19.00;99.90
22698;DHT22;11516;51.612;7.510;2023-07-20T09:12:39;18.90;99.90
22698;DHT22;11516;51.612;7.510;2023-07-20T09:15:05;19.00;99.90
22698;DHT22;11516;51.612;7.510;2023-07-20T09:17:31;19.00;99.90
22698;DHT22;11516;51.612;7.510;2023-07-20T09:19:57;19.00;99.90
22698;DHT22;11516;51.612;7.510;2023-07-20T09:22:29;19.10;99.90
22698;DHT22;11516;51.612;7.510;2023-07-20T09:24:56;19.20;99.90
22698;DHT22;11516;51.612;7.510;2023-07-20T09:27:21;19.30;99.90
22698;DHT22;11516;51.612;7.510;2023-07-20T09:29:51;19.50;99.90
22698;DHT22;11516;51.612;7.510;2023-07-20T09:32:21;19.60;99.90
22698;DHT22;11516;51.612;7.510;2023-07-20T09:34:47;19.50;99.90
22698;DHT22;11516;51.612;7.510;2023-07-20T09:37:13;19.60;99.90
22698;DHT22;11516;51.612;7.510;2023-07-20T09:39:45;19.80;99.90
22698;DHT22;11516;51.612;7.510;2023-07-20T09:42:14;19.70;99.90
22698;DHT22;11516;51.612;7.510;2023-07-20T09:44:43;19.60;99.90
22698;DHT22;11516;51.612;7.510;2023-07-20T09:47:09;19.40;99.90
22698;DHT22;11516;51.612;7.510;2023-07-20T09:49:41;19.40;99.90
22698;DHT22;11516;51.612;7.510;2023-07-20T09:52:11;19.50;99.90
22698;DHT22;11516;51.612;7.510;2023-07-20T09:54:38;19.40;99.90
22698;DHT22;11516;51.612;7.510;2023-07-20T09:57:06;19.30;99.90
22698;DHT22;11516;51.612;7.510;2023-07-20T09:59:34;19.50;99.90
22698;DHT22;11516;51.612;7.510;2023-07-20T10:02:01;19.50;99.90
22698;DHT22;11516;51.612;7.510;2023-07-20T10:04:30;19.60;99.90
22698;DHT22;11516;51.612;7.510;2023-07-20T10:06:59;19.60;99.90
22698;DHT22;11516;51.612;7.510;2023-07-20T10:09:27;19.60;99.90
22698;DHT22;11516;51.612;7.510;2023-07-20T10:11:56;19.70;99.90
22698;DHT22;11516;51.612;7.510;2023-07-20T10:14:23;19.90;99.90
22698;DHT22;11516;51.612;7.510;2023-07-20T10:16:54;20.00;99.90
22698;DHT22;11516;51.612;7.510;2023-07-20T10:19:27;19.90;99.90
22698;DHT22;11516;51.612;7.510;2023-07-20T10:22:15;19.70;99.90
22698;DHT22;11516;51.612;7.510;2023-07-20T10:24:45;19.80;99.90
22698;DHT22;11516;51.612;7.510;2023-07-20T10:27:12;20.00;99.90
22698;DHT22;11516;51.612;7.510;2023-07-20T10:29:39;20.10;99.90
22698;DHT22;11516;51.612;7.510;2023-07-20T10:32:06;20.20;99.90
22698;DHT22;11516;51.612;7.510;2023-07-20T10:34:33;20.30;99.90
22698;DHT22;11516;51.612;7.510;2023-07-20T10:36:59;20.40;99.90
22698;DHT22;11516;51.612;7.510;2023-07-20T10:39:25;20.40;99.90
22698;DHT22;11516;51.612;7.510;2023-07-20T10:42:11;20.60;99.90
22698;DHT22;11516;51.612;7.510;2023-07-20T10:44:38;20.70;99.90
22698;DHT22;11516;51.612;7.510;2023-07-20T10:47:09;20.80;99.90
22698;DHT22;11516;51.612;7.510;2023-07-20T10:49:35;20.80;99.90
22698;DHT22;11516;51.612;7.510;2023-07-20T10:52:05;20.70;99.90
22698;DHT22;11516;51.612;7.510;2023-07-20T10:57:04;20.80;99.90
22698;DHT22;11516;51.612;7.510;2023-07-20T10:59:47;20.70;99.90
22698;DHT22;11516;51.612;7.510;2023-07-20T11:02:12;20.90;99.90
22698;DHT22;11516;51.612;7.510;2023-07-20T11:04:39;20.80;99.90
22698;DHT22;11516;51.612;7.510;2023-07-20T11:07:05;20.70;99.90
22698;DHT22;11516;51.612;7.510;2023-07-20T11:09:35;20.40;99.90
22698;DHT22;11516;51.612;7.510;2023-07-20T11:12:14;21.20;99.90
22698;DHT22;11516;51.612;7.510;2023-07-20T11:14:53;22.10;99.90
22698;DHT22;11516;51.612;7.510;2023-07-20T11:17:19;23.30;99.90
22698;DHT22;11516;51.612;7.510;2023-07-20T11:19:56;23.90;99.20
22698;DHT22;11516;51.612;7.510;2023-07-20T11:22:22;23.10;99.00
22698;DHT22;11516;51.612;7.510;2023-07-20T11:24:47;22.00;99.90
22698;DHT22;11516;51.612;7.510;2023-07-20T11:27:15;21.40;99.90
22698;DHT22;11516;51.612;7.510;2023-07-20T11:29:40;21.40;99.90
22698;DHT22;11516;51.612;7.510;2023-07-20T11:32:06;22.10;99.90
22698;DHT22;11516;51.612;7.510;2023-07-20T11:34:33;22.80;99.90
22698;DHT22;11516;51.612;7.510;2023-07-20T11:37:00;24.00;97.70
22698;DHT22;11516;51.612;7.510;2023-07-20T11:39:26;24.50;96.70
22698;DHT22;11516;51.612;7.510;2023-07-20T11:41:53;25.10;92.60
22698;DHT22;11516;51.612;7.510;2023-07-20T11:44:20;25.60;92.30
22698;DHT22;11516;51.612;7.510;2023-07-20T11:47:03;26.50;88.80
22698;DHT22;11516;51.612;7.510;2023-07-20T11:49:30;25.50;87.20
22698;DHT22;11516;51.612;7.510;2023-07-20T11:51:56;25.90;87.20
22698;DHT22;11516;51.612;7.510;2023-07-20T11:54:23;25.70;85.60
22698;DHT22;11516;51.612;7.510;2023-07-20T11:56:53;24.50;89.60
22698;DHT22;11516;51.612;7.510;2023-07-20T11:59:19;24.60;87.50
22698;DHT22;11516;51.612;7.510;2023-07-20T12:01:45;25.50;86.50
22698;DHT22;11516;51.612;7.510;2023-07-20T12:04:11;26.40;84.70
22698;DHT22;11516;51.612;7.510;2023-07-20T12:06:36;27.10;81.70
22698;DHT22;11516;51.612;7.510;2023-07-20T12:09:02;26.90;80.30
22698;DHT22;11516;51.612;7.510;2023-07-20T12:11:38;26.40;79.40
22698;DHT22;11516;51.612;7.510;2023-07-20T12:14:06;25.50;80.70
22698;DHT22;11516;51.612;7.510;2023-07-20T12:16:33;26.10;81.60
22698;DHT22;11516;51.612;7.510;2023-07-20T12:19:02;26.90;79.50
22698;DHT22;11516;51.612;7.510;2023-07-20T12:21:29;27.50;78.20
22698;DHT22;11516;51.612;7.510;2023-07-20T12:23:57;27.60;76.90
22698;DHT22;11516;51.612;7.510;2023-07-20T12:26:24;28.00;77.00
22698;DHT22;11516;51.612;7.510;2023-07-20T12:28:51;28.30;74.30
22698;DHT22;11516;51.612;7.510;2023-07-20T12:31:16;28.20;73.20
22698;DHT22;11516;51.612;7.510;2023-07-20T12:33:42;28.20;72.10
22698;DHT22;11516;51.612;7.510;2023-07-20T12:36:08;27.60;73.70
22698;DHT22;11516;51.612;7.510;2023-07-20T12:38:34;26.80;76.00
22698;DHT22;11516;51.612;7.510;2023-07-20T12:41:01;27.20;75.80
22698;DHT22;11516;51.612;7.510;2023-07-20T12:43:28;27.20;72.40
22698;DHT22;11516;51.612;7.510;2023-07-20T12:45:54;27.00;73.60
22698;DHT22;11516;51.612;7.510;2023-07-20T12:48:20;27.10;73.20
22698;DHT22;11516;51.612;7.510;2023-07-20T12:50:46;26.90;71.50
22698;DHT22;11516;51.612;7.510;2023-07-20T12:53:11;27.80;71.90
22698;DHT22;11516;51.612;7.510;2023-07-20T12:55:38;28.30;69.90
22698;DHT22;11516;51.612;7.510;2023-07-20T12:58:04;28.60;68.80
22698;DHT22;11516;51.612;7.510;2023-07-20T13:00:29;28.30;70.40
22698;DHT22;11516;51.612;7.510;2023-07-20T13:02:55;28.60;70.00
22698;DHT22;11516;51.612;7.510;2023-07-20T13:05:20;28.30;68.10
22698;DHT22;11516;51.612;7.510;2023-07-20T13:07:46;27.70;67.70
22698;DHT22;11516;51.612;7.510;2023-07-20T13:10:12;26.50;69.20
22698;DHT22;11516;51.612;7.510;2023-07-20T13:12:38;26.00;70.80
22698;DHT22;11516;51.612;7.510;2023-07-20T13:15:05;26.70;71.80
22698;DHT22;11516;51.612;7.510;2023-07-20T13:17:32;27.40;70.30
22698;DHT22;11516;51.612;7.510;2023-07-20T13:19:58;27.50;70.50
22698;DHT22;11516;51.612;7.510;2023-07-20T13:22:24;27.40;69.60
22698;DHT22;11516;51.612;7.510;2023-07-20T13:24:49;27.00;70.60
22698;DHT22;11516;51.612;7.510;2023-07-20T13:27:16;27.40;69.60
22698;DHT22;11516;51.612;7.510;2023-07-20T13:29:42;27.50;69.60
22698;DHT22;11516;51.612;7.510;2023-07-20T13:32:08;27.50;68.70
22698;DHT22;11516;51.612;7.510;2023-07-20T13:34:34;27.70;69.10
22698;DHT22;11516;51.612;7.510;2023-07-20T13:37:00;27.40;66.20
22698;DHT22;11516;51.612;7.510;2023-07-20T13:39:26;26.50;68.50
22698;DHT22;11516;51.612;7.510;2023-07-20T13:41:53;26.00;71.20
22698;DHT22;11516;51.612;7.510;2023-07-20T13:44:22;25.20;72.90
22698;DHT22;11516;51.612;7.510;2023-07-20T13:46:48;24.90;73.70
22698;DHT22;11516;51.612;7.510;2023-07-20T13:49:14;25.40;72.40
22698;DHT22;11516;51.612;7.510;2023-07-20T13:51:43;25.50;71.50
22698;DHT22;11516;51.612;7.510;2023-07-20T13:54:09;25.00;72.00
22698;DHT22;11516;51.612;7.510;2023-07-20T13:56:35;25.10;71.70
22698;DHT22;11516;51.612;7.510;2023-07-20T13:59:00;24.90;72.80
22698;DHT22;11516;51.612;7.510;2023-07-20T14:01:26;24.50;73.90
22698;DHT22;11516;51.612;7.510;2023-07-20T14:03:53;24.90;73.60
22698;DHT22;11516;51.612;7.510;2023-07-20T14:06:19;25.00;72.40
22698;DHT22;11516;51.612;7.510;2023-07-20T14:08:45;24.90;72.50
22698;DHT22;11516;51.612;7.510;2023-07-20T14:11:12;24.90;73.00
22698;DHT22;11516;51.612;7.510;2023-07-20T14:13:38;25.00;71.50
22698;DHT22;11516;51.612;7.510;2023-07-20T14:16:04;24.30;74.40
22698;DHT22;11516;51.612;7.510;2023-07-20T14:18:29;24.30;75.40
22698;DHT22;11516;51.612;7.510;2023-07-20T14:20:55;24.60;74.50
22698;DHT22;11516;51.612;7.510;2023-07-20T14:23:20;24.80;73.90
22698;DHT22;11516;51.612;7.510;2023-07-20T14:25:46;24.90;75.00
22698;DHT22;11516;51.612;7.510;2023-07-20T14:28:11;25.00;74.10
22698;DHT22;11516;51.612;7.510;2023-07-20T14:30:38;25.10;73.90
22698;DHT22;11516;51.612;7.510;2023-07-20T14:33:03;24.90;72.80
22698;DHT22;11516;51.612;7.510;2023-07-20T14:35:29;24.40;75.40
22698;DHT22;11516;51.612;7.510;2023-07-20T14:37:55;24.00;74.90
22698;DHT22;11516;51.612;7.510;2023-07-20T14:40:20;23.90;77.50
22698;DHT22;11516;51.612;7.510;2023-07-20T14:42:46;23.80;78.20
22698;DHT22;11516;51.612;7.510;2023-07-20T14:45:12;23.70;77.60
22698;DHT22;11516;51.612;7.510;2023-07-20T14:47:37;23.70;77.70
22698;DHT22;11516;51.612;7.510;2023-07-20T14:50:03;24.40;78.70
22698;DHT22;11516;51.612;7.510;2023-07-20T14:52:29;25.70;75.10
22698;DHT22;11516;51.612;7.510;2023-07-20T14:54:55;26.50;72.50
22698;DHT22;11516;51.612;7.510;2023-07-20T14:57:20;26.10;72.10
22698;DHT22;11516;51.612;7.510;2023-07-20T14:59:49;27.00;71.50
22698;DHT22;11516;51.612;7.510;2023-07-20T15:02:14;27.50;69.40
22698;DHT22;11516;51.612;7.510;2023-07-20T15:04:50;27.70;68.50
22698;DHT22;11516;51.612;7.510;2023-07-20T15:07:20;27.60;68.20
22698;DHT22;11516;51.612;7.510;2023-07-20T15:09:50;27.60;68.80
22698;DHT22;11516;51.612;7.510;2023-07-20T15:12:15;28.00;68.60
22698;DHT22;11516;51.612;7.510;2023-07-20T15:14:41;28.30;66.40
22698;DHT22;11516;51.612;7.510;2023-07-20T15:17:08;28.40;69.10
22698;DHT22;11516;51.612;7.510;2023-07-20T15:19:34;28.00;68.40
22698;DHT22;11516;51.612;7.510;2023-07-20T15:22:02;27.10;69.00
22698;DHT22;11516;51.612;7.510;2023-07-20T15:24:32;26.00;71.10
22698;DHT22;11516;51.612;7.510;2023-07-20T15:26:57;25.30;72.50
22698;DHT22;11516;51.612;7.510;2023-07-20T15:29:23;24.90;73.20
22698;DHT22;11516;51.612;7.510;2023-07-20T15:31:49;24.60;75.20
22698;DHT22;11516;51.612;7.510;2023-07-20T15:34:14;24.60;77.00
22698;DHT22;11516;51.612;7.510;2023-07-20T15:36:41;24.30;76.90